Terminal Aerodrome Forecast
Issued by NWS Twin Cities, MN

Home | Current Version | Previous Version | Graphics & Text | Print | Product List | Glossary On
Versions: 1 2 3 4 5 6 7 8 9 10 11 12 13 14 15 16 17 18
000
FTUS43 KMPX 011120
TAFSTC
TAF
KSTC 011120Z 0112/0212 VRB02KT 5SM BR FEW010 BKN200
     FM011300 20004KT P6SM BKN200
     FM020200 16003KT P6SM SCT120 BKN200
     FM020900 13003KT 3SM BR BKN250=

USA.gov is the U.S. government's official web portal to all federal, state and local government web resources and services.